createdAt,value
2018-07-08T00:01:30.823Z,94.30
2018-07-08T00:03:59.076Z,93.80
2018-07-08T00:06:30.370Z,94.00
2018-07-08T00:08:58.656Z,94.20
2018-07-08T00:11:26.928Z,93.40
2018-07-08T00:13:55.218Z,93.60
2018-07-08T00:16:23.493Z,94.30
2018-07-08T00:18:51.761Z,94.00
2018-07-08T00:21:20.054Z,94.10
2018-07-08T00:23:48.313Z,94.20
2018-07-08T00:26:16.594Z,94.50
2018-07-08T00:28:44.833Z,94.40
2018-07-08T00:31:13.107Z,94.80
2018-07-08T00:33:41.358Z,94.70
2018-07-08T00:36:09.599Z,94.60
2018-07-08T00:38:37.870Z,94.80
2018-07-08T00:41:06.216Z,95.40
2018-07-08T00:43:34.453Z,95.20
2018-07-08T00:46:02.749Z,95.60
2018-07-08T00:48:30.988Z,95.70
2018-07-08T00:50:59.259Z,96.00
2018-07-08T00:53:27.519Z,96.30
2018-07-08T00:55:55.791Z,96.40
2018-07-08T00:58:24.055Z,96.30
2018-07-08T01:00:52.323Z,96.00
2018-07-08T01:03:20.564Z,96.90
2018-07-08T01:08:16.826Z,96.20
2018-07-08T01:10:45.070Z,96.80
2018-07-08T01:13:13.352Z,96.90
2018-07-08T01:15:41.600Z,96.90
2018-07-08T01:18:09.885Z,97.00
2018-07-08T01:20:38.136Z,97.10
2018-07-08T01:23:06.408Z,96.80
2018-07-08T01:25:46.049Z,96.40
2018-07-08T01:28:14.322Z,97.50
2018-07-08T01:30:42.568Z,96.90
2018-07-08T01:33:10.835Z,97.10
2018-07-08T01:35:39.086Z,97.20
2018-07-08T01:38:07.346Z,97.30
2018-07-08T01:40:35.592Z,96.80
2018-07-08T01:43:03.841Z,96.90
2018-07-08T01:45:32.094Z,97.10
2018-07-08T01:48:00.351Z,97.40
2018-07-08T01:50:28.604Z,97.70
2018-07-08T01:52:56.857Z,97.10
2018-07-08T01:55:25.257Z,96.70
2018-07-08T01:57:53.547Z,97.00
2018-07-08T02:00:21.811Z,96.70
2018-07-08T02:02:50.073Z,96.70
2018-07-08T02:05:18.348Z,97.20
2018-07-08T02:07:46.634Z,97.30
2018-07-08T02:10:14.916Z,97.10
2018-07-08T02:12:43.161Z,97.10
2018-07-08T02:15:11.430Z,97.40
2018-07-08T02:17:39.718Z,97.60
2018-07-08T02:20:08.225Z,98.10
2018-07-08T02:22:36.509Z,97.60
2018-07-08T02:25:05.022Z,97.60
2018-07-08T02:27:33.292Z,97.90
2018-07-08T02:30:01.580Z,98.10
2018-07-08T02:32:29.903Z,98.10
2018-07-08T02:34:58.170Z,98.10
2018-07-08T02:37:26.800Z,98.20
2018-07-08T02:39:55.096Z,98.40
2018-07-08T02:42:23.425Z,98.30
2018-07-08T02:44:51.730Z,98.60
2018-07-08T02:47:19.998Z,98.50
2018-07-08T02:49:48.877Z,98.90
2018-07-08T02:52:17.767Z,98.60
2018-07-08T02:54:46.078Z,99.00
2018-07-08T02:57:14.429Z,99.00
2018-07-08T02:59:42.695Z,98.90
2018-07-08T03:02:10.965Z,98.80
2018-07-08T03:04:39.228Z,98.50
2018-07-08T03:07:07.573Z,98.70
2018-07-08T03:09:35.852Z,98.80
2018-07-08T03:12:04.137Z,99.00
2018-07-08T03:14:32.403Z,98.90
2018-07-08T03:17:00.696Z,99.10
2018-07-08T03:19:28.963Z,99.00
2018-07-08T03:21:57.261Z,98.90
2018-07-08T03:24:25.500Z,99.00
2018-07-08T03:26:53.762Z,99.10
2018-07-08T03:29:22.079Z,98.30
2018-07-08T03:31:50.334Z,98.60
2018-07-08T03:34:18.587Z,98.70
2018-07-08T03:36:46.833Z,99.20
2018-07-08T03:39:15.143Z,99.40
2018-07-08T03:41:43.404Z,99.40
2018-07-08T03:44:11.741Z,99.30
2018-07-08T03:46:40.039Z,99.10
2018-07-08T03:49:08.286Z,99.40
2018-07-08T03:51:36.542Z,99.00
2018-07-08T03:54:10.276Z,99.00
2018-07-08T03:56:38.555Z,99.30
2018-07-08T03:59:06.823Z,99.10
2018-07-08T04:01:35.085Z,99.20
2018-07-08T04:04:03.366Z,99.20
2018-07-08T04:06:31.629Z,99.30
2018-07-08T04:08:59.878Z,99.20
2018-07-08T04:11:28.162Z,99.20
2018-07-08T04:13:56.441Z,98.50
2018-07-08T04:16:25.386Z,98.60
2018-07-08T04:18:53.661Z,98.00
2018-07-08T04:21:21.914Z,97.60
2018-07-08T04:23:50.170Z,98.10
2018-07-08T04:26:18.470Z,98.10
2018-07-08T04:28:46.768Z,98.00
2018-07-08T04:31:15.092Z,98.30
2018-07-08T04:33:43.368Z,98.00
2018-07-08T04:36:11.645Z,98.20
2018-07-08T04:38:39.887Z,98.10
2018-07-08T04:43:36.136Z,98.20
2018-07-08T04:46:04.433Z,98.70
2018-07-08T04:48:32.705Z,98.50
2018-07-08T04:51:00.997Z,97.90
2018-07-08T04:53:29.245Z,97.50
2018-07-08T04:55:57.494Z,97.30
2018-07-08T04:58:25.737Z,97.20
2018-07-08T05:00:54.038Z,97.70
2018-07-08T05:03:22.267Z,97.80
2018-07-08T05:05:50.522Z,98.10
2018-07-08T05:08:18.754Z,98.00
2018-07-08T05:10:47.017Z,98.30
2018-07-08T05:13:15.280Z,98.30
2018-07-08T05:15:43.545Z,98.40
2018-07-08T05:18:11.802Z,98.90
2018-07-08T05:20:40.029Z,99.20
2018-07-08T05:23:08.276Z,99.30
2018-07-08T05:25:36.536Z,99.10
2018-07-08T05:28:04.852Z,98.90
2018-07-08T05:30:33.102Z,98.90
2018-07-08T05:33:01.375Z,98.80
2018-07-08T05:35:29.604Z,99.00
2018-07-08T05:37:57.849Z,99.80
2018-07-08T05:40:26.112Z,98.90
2018-07-08T05:42:54.357Z,98.40
2018-07-08T05:45:22.629Z,97.90
2018-07-08T05:47:50.889Z,97.80
2018-07-08T05:50:19.236Z,97.60
2018-07-08T05:52:47.395Z,97.10
2018-07-08T05:55:15.662Z,97.40
2018-07-08T05:57:43.948Z,96.50
2018-07-08T06:00:12.962Z,96.90
2018-07-08T06:02:41.297Z,96.70
2018-07-08T06:05:09.706Z,96.00
2018-07-08T06:07:38.090Z,96.10
2018-07-08T06:10:06.871Z,95.50
2018-07-08T06:12:35.243Z,94.90
2018-07-08T06:15:03.595Z,95.50
2018-07-08T06:17:31.997Z,95.10
2018-07-08T06:20:00.338Z,95.20
2018-07-08T06:22:28.714Z,94.40
2018-07-08T06:24:56.998Z,93.60
2018-07-08T06:27:25.313Z,93.80
2018-07-08T06:29:53.629Z,92.70
2018-07-08T06:32:21.941Z,92.30
2018-07-08T06:34:50.269Z,90.90
2018-07-08T06:37:18.595Z,89.30
2018-07-08T06:39:46.871Z,90.70
2018-07-08T06:44:47.190Z,88.60
2018-07-08T06:47:15.735Z,84.50
2018-07-08T06:49:44.853Z,83.10
2018-07-08T06:52:13.101Z,79.30
2018-07-08T06:54:42.006Z,77.80
2018-07-08T06:57:10.420Z,75.60
2018-07-08T06:59:38.957Z,75.00
2018-07-08T07:02:07.407Z,75.50
2018-07-08T07:04:35.897Z,73.80
2018-07-08T07:07:04.480Z,74.20
2018-07-08T07:09:33.056Z,75.00
2018-07-08T07:12:01.292Z,75.80
2018-07-08T07:14:29.605Z,72.50
2018-07-08T07:16:57.864Z,72.90
2018-07-08T07:19:26.069Z,72.50
2018-07-08T07:21:54.307Z,72.10
2018-07-08T07:24:22.956Z,71.40
2018-07-08T07:26:51.139Z,70.30
2018-07-08T07:29:19.457Z,72.70
2018-07-08T07:31:48.679Z,75.20
2018-07-08T07:34:16.903Z,72.30
2018-07-08T07:36:45.119Z,72.90
2018-07-08T07:39:13.328Z,72.00
2018-07-08T07:41:41.514Z,72.80
2018-07-08T07:44:09.861Z,70.70
2018-07-08T07:46:38.094Z,71.00
2018-07-08T07:49:06.292Z,70.30
2018-07-08T07:51:36.226Z,69.90
2018-07-08T07:54:04.693Z,68.60
2018-07-08T07:56:33.053Z,70.30
2018-07-08T07:59:01.516Z,68.90
2018-07-08T08:01:29.949Z,68.20
2018-07-08T08:03:58.342Z,66.50
2018-07-08T08:06:26.851Z,64.00
2018-07-08T08:08:55.397Z,62.40
2018-07-08T08:11:25.039Z,63.70
2018-07-08T08:14:01.831Z,61.40
2018-07-08T08:18:58.722Z,58.00
2018-07-08T08:21:27.269Z,56.70
2018-07-08T08:23:57.012Z,56.20
2018-07-08T08:26:26.791Z,54.30
2018-07-08T08:28:55.191Z,53.70
2018-07-08T08:31:23.542Z,52.90
2018-07-08T08:35:02.537Z,50.10
2018-07-08T08:37:32.311Z,53.00
2018-07-08T08:40:07.665Z,51.40
2018-07-08T08:42:37.057Z,51.20
2018-07-08T08:45:07.210Z,50.60
2018-07-08T08:47:35.683Z,51.10
2018-07-08T08:50:13.762Z,47.30
2018-07-08T08:52:42.286Z,46.80
2018-07-08T08:55:12.215Z,50.30
2018-07-08T08:57:40.798Z,48.50
2018-07-08T09:00:12.480Z,49.00
2018-07-08T09:02:45.885Z,46.40
2018-07-08T09:05:25.434Z,47.00
2018-07-08T09:07:56.050Z,47.20
2018-07-08T09:13:41.646Z,43.50
2018-07-08T09:16:29.834Z,47.40
2018-07-08T09:18:58.439Z,44.90
2018-07-08T09:21:28.482Z,46.30
2018-07-08T09:23:57.121Z,44.80
2018-07-08T09:26:25.816Z,45.10
2018-07-08T09:28:58.686Z,47.10
2018-07-08T09:31:27.702Z,44.70
2018-07-08T09:39:42.398Z,45.20
2018-07-08T09:42:10.735Z,45.30
2018-07-08T09:44:42.225Z,46.50
2018-07-08T09:49:45.920Z,45.40
2018-07-08T09:52:14.526Z,44.50
2018-07-08T09:54:43.049Z,46.30
2018-07-08T09:57:11.489Z,48.00
2018-07-08T09:59:40.061Z,44.00
2018-07-08T10:02:08.591Z,43.00
2018-07-08T10:04:37.023Z,47.10
2018-07-08T10:07:06.426Z,44.10
2018-07-08T10:09:34.950Z,43.60
2018-07-08T10:15:02.186Z,43.50
2018-07-08T10:17:30.723Z,45.00
2018-07-08T10:20:01.300Z,45.20
2018-07-08T10:22:29.766Z,42.50
2018-07-08T10:24:58.270Z,45.10
2018-07-08T10:28:31.605Z,45.50
2018-07-08T10:33:56.974Z,43.10
2018-07-08T10:36:25.301Z,42.50
2018-07-08T10:38:53.545Z,43.90
2018-07-08T10:41:22.938Z,44.50
2018-07-08T10:43:52.830Z,44.60
2018-07-08T10:46:22.807Z,44.50
2018-07-08T10:48:52.107Z,42.90
2018-07-08T10:51:22.854Z,41.70
2018-07-08T10:53:51.912Z,41.10
2018-07-08T10:56:21.354Z,41.30
2018-07-08T10:58:50.850Z,43.00
2018-07-08T11:01:20.112Z,41.20
2018-07-08T11:03:49.198Z,40.10
2018-07-08T11:06:17.925Z,40.20
2018-07-08T11:08:46.717Z,38.60
2018-07-08T11:11:17.525Z,41.90
2018-07-08T11:13:47.336Z,37.90
2018-07-08T11:16:16.391Z,41.80
2018-07-08T11:18:45.451Z,41.00
2018-07-08T11:21:14.393Z,41.90
2018-07-08T11:23:43.356Z,40.70
2018-07-08T11:26:16.791Z,40.60
2018-07-08T11:28:48.442Z,40.10
2018-07-08T11:31:17.644Z,40.80
2018-07-08T11:36:55.509Z,42.40
2018-07-08T11:39:27.862Z,41.50
2018-07-08T11:41:56.988Z,39.70
2018-07-08T11:44:27.676Z,40.70
2018-07-08T11:46:59.479Z,40.80
2018-07-08T11:49:29.241Z,42.30
2018-07-08T11:51:59.145Z,42.90
2018-07-08T11:54:29.895Z,41.50
2018-07-08T11:56:58.561Z,42.40
2018-07-08T11:59:27.324Z,42.80
2018-07-08T12:01:55.663Z,41.30
2018-07-08T12:04:23.975Z,41.90
2018-07-08T12:06:52.284Z,43.50
2018-07-08T12:09:20.614Z,42.30
2018-07-08T12:11:48.885Z,42.30
2018-07-08T12:14:17.184Z,45.60
2018-07-08T12:16:45.487Z,42.40
2018-07-08T12:19:13.902Z,43.70
2018-07-08T12:21:42.237Z,43.90
2018-07-08T12:24:10.548Z,44.00
2018-07-08T12:26:38.857Z,44.30
2018-07-08T12:29:08.056Z,44.00
2018-07-08T12:31:37.029Z,44.80
2018-07-08T12:34:06.898Z,44.60
2018-07-08T12:36:35.882Z,45.70
2018-07-08T12:39:07.316Z,44.40
2018-07-08T12:41:36.458Z,44.40
2018-07-08T12:44:05.567Z,45.00
2018-07-08T12:49:07.858Z,45.30
2018-07-08T12:51:38.890Z,44.40
2018-07-08T12:54:07.653Z,45.50
2018-07-08T12:56:36.440Z,44.30
2018-07-08T12:59:05.513Z,45.40
2018-07-08T13:01:34.329Z,46.50
2018-07-08T13:04:02.744Z,45.40
2018-07-08T13:06:31.114Z,45.80
2018-07-08T13:08:59.387Z,45.70
2018-07-08T13:11:27.696Z,47.40
2018-07-08T13:13:55.977Z,45.60
2018-07-08T13:16:24.299Z,44.60
2018-07-08T13:18:52.597Z,46.10
2018-07-08T13:21:20.877Z,47.00
2018-07-08T13:23:49.154Z,44.60
2018-07-08T13:26:17.556Z,45.20
2018-07-08T13:28:45.793Z,46.10
2018-07-08T13:31:14.137Z,45.90
2018-07-08T13:33:42.529Z,45.20
2018-07-08T13:36:10.872Z,46.40
2018-07-08T13:38:39.104Z,44.70
2018-07-08T13:41:09.200Z,45.70
2018-07-08T13:43:42.924Z,46.10
2018-07-08T13:46:14.294Z,45.60
2018-07-08T13:48:43.031Z,44.70
2018-07-08T13:51:27.607Z,44.40
2018-07-08T13:53:59.882Z,43.90
2018-07-08T13:56:29.108Z,44.90
2018-07-08T13:59:00.420Z,45.00
2018-07-08T14:01:29.351Z,45.30
2018-07-08T14:03:59.284Z,45.30
2018-07-08T14:06:29.472Z,45.40
2018-07-08T14:08:58.016Z,45.10
2018-07-08T14:11:26.556Z,44.80
2018-07-08T14:13:55.829Z,45.00
2018-07-08T14:16:25.220Z,45.50
2018-07-08T14:18:53.864Z,44.30
2018-07-08T14:21:23.511Z,44.80
2018-07-08T14:23:54.369Z,44.60
2018-07-08T14:26:23.024Z,44.30
2018-07-08T14:28:51.704Z,44.90
2018-07-08T14:31:26.971Z,44.80
2018-07-08T14:33:55.533Z,45.60
2018-07-08T14:36:24.032Z,45.50
2018-07-08T14:38:52.608Z,43.80
2018-07-08T14:41:21.185Z,44.90
2018-07-08T14:43:50.097Z,45.80
2018-07-08T14:46:18.786Z,44.80
2018-07-08T14:48:47.301Z,44.60
2018-07-08T14:51:15.902Z,44.40
2018-07-08T14:53:44.521Z,44.30
2018-07-08T14:56:13.214Z,44.30
2018-07-08T14:58:41.929Z,45.10
2018-07-08T15:01:10.576Z,44.50
2018-07-08T15:03:39.206Z,44.40
2018-07-08T15:11:05.352Z,43.30
2018-07-08T15:13:33.997Z,42.20
2018-07-08T15:16:10.216Z,42.90
2018-07-08T15:18:38.813Z,43.10
2018-07-08T15:21:07.383Z,43.00
2018-07-08T15:23:35.932Z,42.70
2018-07-08T15:26:04.630Z,42.10
2018-07-08T15:28:33.362Z,42.70
2018-07-08T15:31:01.848Z,43.70
2018-07-08T15:33:30.431Z,43.40
2018-07-08T15:35:59.132Z,43.60
2018-07-08T15:38:28.183Z,42.60
2018-07-08T15:43:25.254Z,42.70
2018-07-08T15:48:23.961Z,43.20
2018-07-08T15:50:52.560Z,43.10
2018-07-08T15:53:21.293Z,43.50
2018-07-08T15:55:49.959Z,43.50
2018-07-08T15:58:18.599Z,43.60
2018-07-08T16:00:47.221Z,43.30
2018-07-08T16:03:15.773Z,43.50
2018-07-08T16:05:45.736Z,43.00
2018-07-08T16:08:14.353Z,43.00
2018-07-08T16:10:44.085Z,43.30
2018-07-08T16:13:17.404Z,43.70
2018-07-08T16:15:47.893Z,44.10
2018-07-08T16:20:44.928Z,43.90
2018-07-08T16:23:13.763Z,44.20
2018-07-08T16:25:47.116Z,42.10
2018-07-08T16:28:15.589Z,43.10
2018-07-08T16:30:44.030Z,43.50
2018-07-08T16:33:13.045Z,43.70
2018-07-08T16:35:45.107Z,44.50
2018-07-08T16:38:21.499Z,43.10
2018-07-08T16:40:50.691Z,43.50
2018-07-08T16:43:19.186Z,44.60
2018-07-08T16:45:48.208Z,44.80
2018-07-08T16:48:16.726Z,43.40
2018-07-08T16:53:26.879Z,43.60
2018-07-08T16:55:56.361Z,42.90
2018-07-08T16:58:24.949Z,43.30
2018-07-08T17:00:53.526Z,43.60
2018-07-08T17:03:23.962Z,43.30
2018-07-08T17:05:58.155Z,43.60
2018-07-08T17:08:26.619Z,43.90
2018-07-08T17:10:55.706Z,43.00
2018-07-08T17:13:24.285Z,47.20
2018-07-08T17:15:52.823Z,44.70
2018-07-08T17:18:21.449Z,43.90
2018-07-08T17:20:50.210Z,44.00
2018-07-08T17:23:19.266Z,43.10
2018-07-08T17:25:48.748Z,43.00
2018-07-08T17:28:17.468Z,42.70
2018-07-08T17:30:46.086Z,44.00
2018-07-08T17:33:15.473Z,44.00
2018-07-08T17:35:43.924Z,44.20
2018-07-08T17:38:13.395Z,44.60
2018-07-08T17:40:42.757Z,45.70
2018-07-08T17:43:11.129Z,45.20
2018-07-08T17:45:39.649Z,45.50
2018-07-08T17:48:08.116Z,45.20
2018-07-08T17:50:36.582Z,44.90
2018-07-08T17:55:34.069Z,45.20
2018-07-08T17:58:02.591Z,45.40
2018-07-08T18:00:31.097Z,45.90
2018-07-08T18:02:59.664Z,45.20
2018-07-08T18:05:28.210Z,45.00
2018-07-08T18:08:04.272Z,45.10
2018-07-08T18:13:22.231Z,45.60
2018-07-08T18:15:50.838Z,45.80
2018-07-08T18:18:21.757Z,45.80
2018-07-08T18:20:50.354Z,45.50
2018-07-08T18:23:18.962Z,45.80
2018-07-08T18:25:47.416Z,46.40
2018-07-08T18:28:15.905Z,47.00
2018-07-08T18:30:51.175Z,46.40
2018-07-08T18:33:19.750Z,48.00
2018-07-08T18:35:48.470Z,48.50
2018-07-08T18:38:17.287Z,47.60
2018-07-08T18:40:45.819Z,47.30
2018-07-08T18:43:14.412Z,47.60
2018-07-08T18:45:43.001Z,48.30
2018-07-08T18:48:11.656Z,48.50
2018-07-08T18:50:40.080Z,51.60
2018-07-08T18:53:08.396Z,51.80
2018-07-08T18:55:40.809Z,53.60
2018-07-08T18:58:09.347Z,53.90
2018-07-08T19:00:38.039Z,55.50
2018-07-08T19:03:07.045Z,58.60
2018-07-08T19:05:44.066Z,53.70
2018-07-08T19:13:34.546Z,51.50
2018-07-08T19:16:04.243Z,53.10
2018-07-08T19:18:32.870Z,56.50
2018-07-08T19:21:01.503Z,57.80
2018-07-08T19:23:30.386Z,61.00
2018-07-08T19:25:59.067Z,57.10
2018-07-08T19:28:27.774Z,58.30
2018-07-08T19:30:56.543Z,58.40
2018-07-08T19:33:26.346Z,56.30
2018-07-08T19:35:55.001Z,61.20
2018-07-08T19:38:32.124Z,55.60
2018-07-08T19:41:00.716Z,55.40
2018-07-08T19:43:29.395Z,58.00
2018-07-08T19:45:58.123Z,57.20
2018-07-08T19:48:27.332Z,57.00
2018-07-08T19:50:55.951Z,57.80
2018-07-08T19:53:24.652Z,58.50
2018-07-08T19:55:53.394Z,58.70
2018-07-08T19:58:22.006Z,59.10
2018-07-08T20:03:47.640Z,60.20
2018-07-08T20:09:28.258Z,60.50
2018-07-08T20:11:59.585Z,61.20
2018-07-08T20:15:56.815Z,60.50
2018-07-08T20:24:52.666Z,61.20
2018-07-08T20:27:23.262Z,62.10
2018-07-08T20:30:12.896Z,62.50
2018-07-08T20:35:19.673Z,62.80
2018-07-08T20:37:50.596Z,65.90
2018-07-08T20:40:19.198Z,63.30
2018-07-08T20:42:47.942Z,65.00
2018-07-08T20:45:16.464Z,66.60
2018-07-08T20:47:45.746Z,65.50
2018-07-08T20:50:14.710Z,64.80
